Time;durP1;ratioP1;P1;durP2;ratioP2;P2;SDS_P1;SDS_P2;PMS_P1;PMS_P2;Temp;Humidity;BMP_temperature;BMP_pressure;BME280_temperature;BME280_humidity;BME280_pressure;Samples;Min_cycle;Max_cycle;Signal;HPM_P1;HPM_P2
2022/11/15 00:01:48;;;;;;;30.03;16.67;;;;;;;7.21;84.10;101458.11;123229;1102;104271;-76
2022/11/15 00:04:36;;;;;;;29.63;15.97;;;;;;;7.19;84.50;101444.96;123027;1102;104188;-76
2022/11/15 00:07:23;;;;;;;34.73;17.50;;;;;;;7.11;84.45;101446.18;123083;1102;104347;-77
2022/11/15 00:10:10;;;;;;;33.50;16.13;;;;;;;7.12;84.14;101439.24;123062;1102;104393;-77
2022/11/15 00:12:57;;;;;;;32.63;16.00;;;;;;;7.13;84.51;101433.23;123195;1102;104281;-76
2022/11/15 00:15:44;;;;;;;31.93;16.30;;;;;;;7.10;84.48;101435.64;123213;1102;104245;-76
2022/11/15 00:18:32;;;;;;;35.23;16.07;;;;;;;7.03;84.39;101426.52;123060;1102;104376;-76
2022/11/15 00:21:19;;;;;;;31.97;16.50;;;;;;;7.05;84.56;101430.13;123172;1102;104284;-76
2022/11/15 00:24:07;;;;;;;33.10;17.27;;;;;;;7.09;84.47;101428.61;123050;1102;104383;-76
2022/11/15 00:26:55;;;;;;;33.43;16.83;;;;;;;7.02;84.37;101424.70;123056;1102;104316;-76
2022/11/15 00:29:43;;;;;;;33.27;17.17;;;;;;;7.01;84.25;101417.67;123143;1102;104246;-76
2022/11/15 00:32:32;;;;;;;35.47;18.43;;;;;;;7.01;84.82;101423.81;122962;1100;110556;-76
2022/11/15 00:35:20;;;;;;;39.80;19.40;;;;;;;7.00;84.73;101423.72;123105;1102;104251;-76
2022/11/15 00:38:07;;;;;;;38.03;18.03;;;;;;;6.99;84.89;101414.96;123218;1102;104303;-75
2022/11/15 00:40:55;;;;;;;33.45;17.50;;;;;;;7.02;84.86;101406.44;123114;1102;104351;-76
2022/11/15 00:43:43;;;;;;;35.13;18.23;;;;;;;7.00;84.50;101401.12;123048;1102;104348;-76
2022/11/15 00:46:30;;;;;;;35.87;17.87;;;;;;;7.00;84.56;101408.05;123070;1102;104300;-76
2022/11/15 00:49:18;;;;;;;34.63;17.33;;;;;;;7.00;84.68;101408.95;123054;1102;104245;-76
2022/11/15 00:52:05;;;;;;;34.50;16.93;;;;;;;6.99;84.68;101401.91;123055;1102;105750;-76
2022/11/15 00:54:52;;;;;;;32.13;17.40;;;;;;;7.01;85.07;101391.57;123054;1102;104334;-75
2022/11/15 00:57:40;;;;;;;32.00;17.07;;;;;;;7.02;84.52;101393.39;123101;1102;104236;-76
2022/11/15 01:00:28;;;;;;;33.80;16.95;;;;;;;7.05;84.46;101390.98;123038;1100;104249;-76
2022/11/15 01:03:15;;;;;;;34.83;17.30;;;;;;;7.09;84.62;101386.84;123053;1102;104367;-76
2022/11/15 01:06:02;;;;;;;35.13;16.87;;;;;;;7.11;85.04;101386.16;122992;1102;104332;-76
2022/11/15 01:08:50;;;;;;;32.73;15.97;;;;;;;7.13;84.50;101378.42;122972;1100;104812;-75
2022/11/15 01:11:37;;;;;;;33.83;16.43;;;;;;;7.10;84.50;101379.11;123062;1100;104641;-77
2022/11/15 01:14:25;;;;;;;30.63;16.03;;;;;;;7.10;84.60;101384.34;123061;1102;104284;-76
2022/11/15 01:17:12;;;;;;;31.10;15.07;;;;;;;7.10;84.90;101371.28;123065;1102;104210;-75
2022/11/15 01:20:00;;;;;;;26.00;14.80;;;;;;;7.11;84.63;101373.10;123079;1102;104293;-76
2022/11/15 01:22:47;;;;;;;31.43;16.33;;;;;;;7.12;85.12;101361.87;122945;1102;104329;-75
2022/11/15 01:25:35;;;;;;;29.73;14.83;;;;;;;7.11;84.45;101362.66;123068;1102;104284;-75
2022/11/15 01:28:22;;;;;;;29.50;14.97;;;;;;;7.08;84.45;101362.47;123099;1102;104278;-76
2022/11/15 01:31:15;;;;;;;30.07;15.17;;;;;;;7.07;84.60;101363.26;123070;1102;104230;-76
2022/11/15 01:34:03;;;;;;;30.80;14.60;;;;;;;7.06;84.82;101360.55;123024;1102;118976;-76
2022/11/15 01:36:50;;;;;;;28.80;14.77;;;;;;;7.04;84.80;101355.23;123046;1102;104274;-76
2022/11/15 01:39:38;;;;;;;30.57;15.23;;;;;;;7.06;84.81;101352.72;123072;1102;104389;-75
2022/11/15 01:42:25;;;;;;;28.20;14.90;;;;;;;7.08;84.75;101353.74;123105;1102;104258;-76
2022/11/15 01:45:15;;;;;;;28.87;14.73;;;;;;;7.09;84.94;101353.84;123031;1102;104332;-76
2022/11/15 01:48:02;;;;;;;28.00;13.93;;;;;;;7.07;84.82;101347.59;123015;1102;104409;-76
2022/11/15 01:50:50;;;;;;;29.47;15.13;;;;;;;7.02;84.65;101343.80;123024;1101;104389;-76
2022/11/15 01:53:42;;;;;;;28.83;14.73;;;;;;;7.01;84.84;101336.77;123043;1102;104737;-76
2022/11/15 01:56:33;;;;;;;27.60;14.93;;;;;;;7.04;85.01;101333.47;123082;1102;104345;-76
2022/11/15 01:59:21;;;;;;;30.60;14.30;;;;;;;7.03;84.76;101337.80;123000;1102;104274;-76
2022/11/15 02:02:09;;;;;;;31.87;15.43;;;;;;;7.04;84.75;101339.58;123095;1102;104392;-75
2022/11/15 02:04:56;;;;;;;29.03;15.60;;;;;;;7.04;84.93;101336.08;122968;1102;109186;-77
2022/11/15 02:07:45;;;;;;;26.90;15.73;;;;;;;7.01;84.89;101331.55;123096;1102;104245;-76
2022/11/15 02:10:34;;;;;;;30.37;16.47;;;;;;;6.99;84.55;101325.34;123118;1102;104274;-76
2022/11/15 02:13:21;;;;;;;29.20;16.40;;;;;;;6.95;84.85;101310.29;123215;1102;104271;-76
2022/11/15 02:16:23;;;;;;;28.47;16.70;;;;;;;6.90;84.49;101315.22;123176;1102;104274;-77
2022/11/15 02:19:29;;;;;;;30.90;16.97;;;;;;;6.87;84.71;101315.02;123263;1102;104393;-76
2022/11/15 02:22:29;;;;;;;31.47;16.50;;;;;;;6.86;84.75;101317.53;123121;1101;104267;-76
2022/11/15 02:25:39;;;;;;;25.23;15.40;;;;;;;6.86;84.67;101308.02;123074;1102;104303;-76
2022/11/15 02:28:44;;;;;;;29.40;15.67;;;;;;;6.90;84.61;101311.72;123063;1102;104277;-77
2022/11/15 02:31:42;;;;;;;29.45;15.45;;;;;;;6.89;84.67;101316.04;123170;1102;104344;-76
2022/11/15 02:34:44;;;;;;;27.77;15.53;;;;;;;6.90;84.42;101310.00;123042;1102;104335;-77
2022/11/15 02:37:39;;;;;;;29.57;15.60;;;;;;;6.91;84.62;101305.70;123111;1102;104242;-76
2022/11/15 02:40:39;;;;;;;28.65;15.30;;;;;;;6.90;84.42;101310.00;123009;1102;104204;-76
2022/11/15 02:49:49;;;;;;;27.90;13.97;;;;;;;6.86;84.64;101299.27;123102;1102;104351;-76
2022/11/15 02:52:36;;;;;;;25.80;13.83;;;;;;;6.86;84.47;101304.48;123254;1102;104242;-76
2022/11/15 02:55:33;;;;;;;26.50;14.27;;;;;;;6.84;84.73;101299.20;123267;1102;104696;-75
2022/11/15 02:58:35;;;;;;;27.20;14.03;;;;;;;6.82;84.85;101300.79;124683;1102;104217;-75
2022/11/15 03:01:35;;;;;;;28.30;13.43;;;;;;;6.80;84.73;101295.48;123240;1102;104348;-75
2022/11/15 03:04:34;;;;;;;27.33;13.73;;;;;;;6.79;84.77;101298.91;123180;1102;104367;-77
2022/11/15 03:07:29;;;;;;;28.67;14.30;;;;;;;6.73;84.39;101280.27;123141;1102;104265;-76
2022/11/15 03:10:24;;;;;;;29.13;14.97;;;;;;;6.80;84.63;101284.16;123104;1102;104345;-76
2022/11/15 03:13:17;;;;;;;;;;;;;;;6.80;84.82;101287.66;123172;1102;104344;-76
2022/11/15 03:16:09;;;;;;;25.53;14.03;;;;;;;6.78;84.67;101281.45;123016;1101;104316;-77
2022/11/15 03:19:01;;;;;;;27.83;14.93;;;;;;;6.77;84.70;101284.84;123064;1102;104386;-77
2022/11/15 03:21:50;;;;;;;28.33;15.93;;;;;;;6.75;84.72;101278.64;123108;1101;104341;-76
2022/11/15 03:24:39;;;;;;;25.53;14.37;;;;;;;6.74;84.71;101275.94;123057;1102;104268;-77
2022/11/15 03:27:32;;;;;;;27.33;14.80;;;;;;;6.73;84.78;101269.83;123033;1102;104316;-76
2022/11/15 03:30:19;;;;;;;28.75;14.65;;;;;;;6.71;84.52;101263.59;123088;1101;104896;-76
2022/11/15 03:33:09;;;;;;;31.27;14.27;;;;;;;6.70;84.77;101264.42;123088;1102;104453;-76
2022/11/15 03:35:56;;;;;;;27.40;14.77;;;;;;;6.68;84.86;101258.17;123052;1102;104354;-76
2022/11/15 03:38:45;;;;;;;28.13;14.23;;;;;;;6.67;84.86;101261.61;123100;1100;104342;-75
2022/11/15 03:41:40;;;;;;;27.67;15.07;;;;;;;6.66;84.52;101252.86;123102;1102;104328;-75
2022/11/15 03:44:40;;;;;;;27.80;14.77;;;;;;;6.65;84.57;101257.98;123053;1102;104256;-77
2022/11/15 03:47:33;;;;;;;28.50;14.63;;;;;;;6.64;84.76;101256.20;123015;1102;104396;-77
2022/11/15 03:50:22;;;;;;;28.47;14.90;;;;;;;6.63;84.88;101241.34;123105;1101;104329;-77
2022/11/15 03:53:10;;;;;;;27.30;14.80;;;;;;;6.61;84.76;101245.58;123088;1102;104242;-76
2022/11/15 03:55:58;;;;;;;30.03;14.53;;;;;;;6.61;84.78;101235.14;123043;1102;104364;-77
2022/11/15 03:58:45;;;;;;;27.03;15.03;;;;;;;6.62;84.59;101236.92;122989;1102;118214;-76
2022/11/15 04:01:32;;;;;;;30.30;14.80;;;;;;;6.62;84.65;101236.92;123154;1102;104395;-76
2022/11/15 04:04:20;;;;;;;26.87;14.70;;;;;;;6.61;84.61;101230.81;123118;1101;104319;-77
2022/11/15 04:07:09;;;;;;;29.57;15.20;;;;;;;6.62;84.74;101219.59;123055;1102;104268;-77
2022/11/15 04:10:02;;;;;;;30.77;16.23;;;;;;;6.62;84.79;101221.28;123095;1102;104248;-77
2022/11/15 04:12:49;;;;;;;29.83;15.90;;;;;;;6.60;84.55;101218.57;123081;1102;104817;-77
2022/11/15 04:15:37;;;;;;;30.37;16.27;;;;;;;6.58;84.91;101216.69;123049;1102;104274;-77
2022/11/15 04:18:24;;;;;;;30.07;15.83;;;;;;;6.57;84.59;101218.38;123188;1100;105574;-77
2022/11/15 04:24:17;;;;;;;32.67;15.80;;;;;;;6.52;84.63;101217.20;123355;1102;104341;-77
2022/11/15 04:27:05;;;;;;;31.10;16.07;;;;;;;6.47;84.62;101208.19;123187;1102;104330;-76
2022/11/15 04:29:52;;;;;;;29.67;15.23;;;;;;;6.42;84.72;101218.33;123113;1102;104352;-76
2022/11/15 04:32:41;;;;;;;27.17;15.27;;;;;;;6.39;84.80;101210.30;123185;1102;104354;-76
2022/11/15 04:35:29;;;;;;;34.10;16.77;;;;;;;6.37;84.83;101214.50;123106;1102;104357;-77
2022/11/15 04:38:16;;;;;;;31.27;16.10;;;;;;;6.37;84.71;101209.28;123203;1102;104348;-77
2022/11/15 04:41:04;;;;;;;31.60;16.40;;;;;;;6.38;84.71;101205.89;123166;1101;104648;-75
2022/11/15 04:43:52;;;;;;;30.80;16.33;;;;;;;6.38;85.04;101211.10;123113;1102;104373;-76
2022/11/15 04:46:39;;;;;;;29.07;15.27;;;;;;;6.39;84.97;101212.91;123138;1102;104213;-77
2022/11/15 04:49:26;;;;;;;32.57;16.40;;;;;;;6.38;84.85;101210.21;123130;1102;104428;-76
2022/11/15 04:52:14;;;;;;;33.10;16.70;;;;;;;6.36;84.62;101207.50;123326;1102;104357;-76
2022/11/15 04:55:01;;;;;;;31.47;15.07;;;;;;;6.30;84.80;101214.93;123174;1102;104326;-76
2022/11/15 04:57:57;;;;;;;30.30;16.63;;;;;;;6.24;84.94;101210.22;123235;1102;104373;-76
2022/11/15 05:00:44;;;;;;;30.80;16.30;;;;;;;6.21;84.82;101209.13;123219;1102;104290;-77
2022/11/15 05:06:37;;;;;;;31.60;15.80;;;;;;;6.16;84.71;101215.75;123174;1102;104354;-76
2022/11/15 05:09:24;;;;;;;34.83;16.33;;;;;;;6.14;84.71;101212.13;123158;1102;104489;-76
2022/11/15 05:12:11;;;;;;;30.03;16.30;;;;;;;6.12;84.80;101206.81;123165;1102;104310;-75
2022/11/15 05:14:58;;;;;;;34.77;17.13;;;;;;;6.10;84.76;101216.25;123131;1102;104293;-75
2022/11/15 05:17:46;;;;;;;33.47;16.73;;;;;;;6.07;84.82;101219.54;123055;1102;104296;-76
2022/11/15 05:20:33;;;;;;;30.30;16.20;;;;;;;6.07;84.74;101216.94;123058;1101;104328;-75
2022/11/15 05:23:20;;;;;;;27.90;14.87;;;;;;;6.06;84.79;101212.55;123127;1102;104328;-75
2022/11/15 05:26:09;;;;;;;29.53;14.80;;;;;;;6.07;85.03;101214.33;123148;1102;104367;-75
2022/11/15 05:28:58;;;;;;;29.53;14.83;;;;;;;6.13;84.92;101215.55;123108;1102;104284;-75
2022/11/15 05:31:46;;;;;;;29.77;15.03;;;;;;;6.13;84.93;101213.84;123177;1102;104284;-75
2022/11/15 05:34:33;;;;;;;31.93;16.27;;;;;;;6.15;84.88;101220.04;123119;1101;104245;-75
2022/11/15 05:37:20;;;;;;;31.95;16.05;;;;;;;6.15;85.17;101213.94;123148;1102;104286;-75
2022/11/15 05:40:11;;;;;;;31.35;15.50;;;;;;;6.17;85.13;101212.32;123232;1102;104249;-75
2022/11/15 05:43:00;;;;;;;34.10;16.57;;;;;;;6.19;85.07;101208.13;123233;1102;104252;-75
2022/11/15 05:45:47;;;;;;;32.20;16.00;;;;;;;6.17;84.95;101215.85;123283;1100;104206;-74
2022/11/15 05:48:37;;;;;;;32.47;17.20;;;;;;;6.12;85.14;101209.41;123227;1102;104243;-75
2022/11/15 05:51:25;;;;;;;36.43;17.17;;;;;;;6.13;85.11;101212.95;123210;1102;117927;-74
2022/11/15 05:54:13;;;;;;;34.53;18.07;;;;;;;6.16;85.58;101207.94;123389;1102;104405;-74
2022/11/15 05:57:00;;;;;;;38.77;16.27;;;;;;;6.16;85.04;101206.22;123526;1102;104210;-74
2022/11/15 05:59:48;;;;;;;32.53;17.20;;;;;;;6.16;85.29;101206.22;123573;1102;104181;-73
2022/11/15 06:02:35;;;;;;;36.50;17.50;;;;;;;6.20;85.19;101209.91;123397;1102;104253;-74
2022/11/15 06:05:22;;;;;;;32.53;17.30;;;;;;;6.16;84.78;101203.61;123370;1100;104350;-74
2022/11/15 06:08:09;;;;;;;35.97;17.30;;;;;;;6.13;85.32;101205.12;123416;1101;104354;-74
2022/11/15 06:10:56;;;;;;;35.25;18.50;;;;;;;6.13;84.83;101202.52;123442;1100;104271;-75
2022/11/15 06:13:44;;;;;;;36.00;18.25;;;;;;;6.09;84.79;101211.82;123319;1101;104272;-74
2022/11/15 06:16:31;;;;;;;35.53;18.30;;;;;;;6.11;84.98;101203.31;123347;1101;104277;-74
2022/11/15 06:19:18;;;;;;;36.20;18.00;;;;;;;6.10;85.15;101211.03;123553;1101;104290;-74
2022/11/15 06:22:06;;;;;;;37.17;18.37;;;;;;;6.04;84.90;101202.81;123750;1102;107852;-74
2022/11/15 06:24:53;;;;;;;37.97;18.40;;;;;;;6.04;85.27;101203.70;123855;1102;104219;-75
2022/11/15 06:27:42;;;;;;;38.60;19.13;;;;;;;6.05;85.12;101205.52;124315;1102;104184;-74
2022/11/15 06:30:32;;;;;;;38.53;17.50;;;;;;;6.06;84.92;101206.41;124025;1102;104181;-74
2022/11/15 06:33:19;;;;;;;37.23;17.87;;;;;;;6.12;85.16;101204.20;124058;1102;104274;-74
2022/11/15 06:36:10;;;;;;;39.47;18.37;;;;;;;6.15;84.98;101200.91;124131;1102;104153;-75
2022/11/15 06:38:59;;;;;;;36.30;18.63;;;;;;;6.17;84.85;101200.22;124473;1102;104271;-75
2022/11/15 06:41:46;;;;;;;42.13;19.20;;;;;;;6.23;85.05;101195.41;124312;1102;104274;-75
2022/11/15 06:44:34;;;;;;;42.00;18.70;;;;;;;6.26;85.18;101192.99;124341;1102;102291;-76
2022/11/15 06:47:24;;;;;;;39.37;19.47;;;;;;;6.29;85.22;101190.58;124861;1102;104363;-75
2022/11/15 06:50:13;;;;;;;37.47;19.00;;;;;;;6.36;85.12;101181.44;124141;1100;104309;-76
2022/11/15 06:53:04;;;;;;;36.23;18.23;;;;;;;6.43;84.81;101182.72;124576;1102;104188;-75
2022/11/15 06:55:52;;;;;;;37.43;18.50;;;;;;;6.50;84.94;101177.09;124445;1102;104249;-75
2022/11/15 06:58:40;;;;;;;37.43;18.73;;;;;;;6.59;85.04;101175.06;124392;1102;104181;-74
2022/11/15 07:01:28;;;;;;;37.10;18.70;;;;;;;6.65;85.08;101174.53;124186;1102;104213;-75
2022/11/15 07:04:30;;;;;;;41.20;19.07;;;;;;;6.74;84.87;101167.27;124063;1102;104527;-75
2022/11/15 07:07:23;;;;;;;38.73;18.63;;;;;;;6.83;85.22;101175.67;124169;1102;104323;-75
2022/11/15 07:13:42;;;;;;;37.40;19.43;;;;;;;6.99;85.28;101167.06;124161;1102;103817;-73
2022/11/15 07:16:40;;;;;;;41.00;21.33;;;;;;;7.05;84.80;101171.77;125333;1102;103681;-75
2022/11/15 07:19:30;;;;;;;40.87;20.73;;;;;;;7.15;84.97;101170.59;125080;1102;104438;-74
2022/11/15 07:22:46;;;;;;;;;;;;;;;;;;;;;
2022/11/15 07:25:42;;;;;;;43.53;20.30;;;;;;;7.33;84.63;101170.81;124124;1102;104043;-75
2022/11/15 07:28:32;;;;;;;40.40;20.02;;;;;;;7.44;84.73;101151.45;124108;1102;104188;-75
2022/11/15 07:31:25;;;;;;;41.97;19.83;;;;;;;7.49;84.51;101149.11;124097;1102;102931;-74
2022/11/15 07:34:34;;;;;;;41.17;20.63;;;;;;;7.51;84.65;101135.34;124085;1102;109973;-75
2022/11/15 07:37:41;;;;;;;42.67;20.73;;;;;;;7.63;84.54;101145.58;125099;1102;104258;-75
2022/11/15 07:40:42;;;;;;;39.40;20.27;;;;;;;7.69;84.45;101134.59;125191;1102;104172;-76
2022/11/15 07:43:52;;;;;;;40.73;20.67;;;;;;;7.71;84.64;101146.02;125275;1102;103616;-74
2022/11/15 07:46:45;;;;;;;47.07;22.13;;;;;;;7.75;84.35;101137.56;125311;1102;103316;-74
2022/11/15 07:49:33;;;;;;;37.70;20.33;;;;;;;7.80;84.29;101140.44;124491;1102;104270;-75
2022/11/15 07:52:20;;;;;;;38.07;20.03;;;;;;;7.80;84.30;101138.72;124419;1102;104287;-75
2022/11/15 07:55:14;;;;;;;48.20;23.83;;;;;;;7.81;84.32;101134.41;124196;1102;109807;-74
2022/11/15 07:58:05;;;;;;;41.33;20.63;;;;;;;7.84;83.91;101138.09;124322;1102;104185;-75
2022/11/15 08:00:54;;;;;;;37.57;20.03;;;;;;;7.88;84.04;101134.84;124159;1102;103064;-74
2022/11/15 08:03:41;;;;;;;41.33;20.37;;;;;;;7.90;84.35;101130.59;124041;1102;104254;-75
2022/11/15 08:06:29;;;;;;;36.60;19.33;;;;;;;7.92;83.83;101121.13;124213;1102;104182;-74
2022/11/15 08:09:18;;;;;;;36.30;18.83;;;;;;;7.96;84.20;101123.91;124193;1102;104258;-74
2022/11/15 08:12:07;;;;;;;51.33;23.30;;;;;;;8.02;84.58;101124.25;124302;1102;104351;-74
2022/11/15 08:14:57;;;;;;;40.37;20.30;;;;;;;8.07;84.34;101125.40;124152;1101;104191;-75
2022/11/15 08:17:53;;;;;;;41.97;22.23;;;;;;;8.10;84.04;101128.19;124189;1102;104185;-75
2022/11/15 08:20:41;;;;;;;38.20;20.50;;;;;;;8.14;83.76;101122.32;125940;1100;103646;-73
2022/11/15 08:23:29;;;;;;;40.37;21.17;;;;;;;8.12;84.14;101125.66;125893;1102;103526;-73
2022/11/15 08:26:16;;;;;;;37.77;20.00;;;;;;;8.10;83.57;101126.49;126007;1102;102398;-76
2022/11/15 08:29:06;;;;;;;44.40;23.37;;;;;;;8.15;83.86;101123.21;125861;1101;104713;-73
2022/11/15 08:32:00;;;;;;;40.53;21.03;;;;;;;8.20;83.58;101122.66;125971;1101;102932;-73
2022/11/15 08:34:48;;;;;;;38.53;19.93;;;;;;;8.26;83.60;101125.62;126090;1102;102595;-74
2022/11/15 08:37:35;;;;;;;36.43;20.10;;;;;;;8.33;83.78;101112.88;126246;1101;103065;-74
2022/11/15 08:40:22;;;;;;;37.33;19.80;;;;;;;8.45;84.09;101110.97;126204;1100;101921;-75
2022/11/15 08:43:09;;;;;;;40.13;20.83;;;;;;;8.55;83.97;101109.73;124187;1102;104178;-75
2022/11/15 08:45:58;;;;;;;39.80;20.40;;;;;;;8.63;83.95;101098.88;124125;1102;104169;-75
2022/11/15 08:48:45;;;;;;;42.00;20.57;;;;;;;8.73;83.23;101101.98;124153;1102;104211;-72
2022/11/15 08:51:35;;;;;;;47.50;21.30;;;;;;;8.77;82.98;101101.30;124146;1102;104269;-75
2022/11/15 08:54:25;;;;;;;39.70;21.47;;;;;;;8.81;83.50;101096.31;124249;1102;102913;-73
2022/11/15 08:57:15;;;;;;;43.40;22.37;;;;;;;8.86;83.60;101083.46;124517;1102;102415;-74
2022/11/15 09:00:04;;;;;;;40.40;21.40;;;;;;;8.90;83.08;101085.44;124315;1102;103248;-74
2022/11/15 09:02:54;;;;;;;40.83;21.63;;;;;;;8.98;83.37;101076.25;124497;1102;104169;-74
2022/11/15 09:05:41;;;;;;;42.53;21.97;;;;;;;9.07;83.34;101070.59;124372;1101;104178;-73
2022/11/15 09:08:35;;;;;;;40.00;22.20;;;;;;;9.14;83.30;101058.70;124478;1102;104274;-74
2022/11/15 09:11:24;;;;;;;44.77;21.77;;;;;;;9.20;82.80;101058.13;124323;1100;104370;-75
2022/11/15 09:14:14;;;;;;;39.80;21.17;;;;;;;9.24;82.79;101050.50;124182;1102;104245;-75
2022/11/15 09:17:04;;;;;;;45.33;21.63;;;;;;;9.32;82.94;101049.15;126284;1101;103185;-75
2022/11/15 09:19:54;;;;;;;39.17;20.73;;;;;;;9.36;82.50;101042.33;126223;1101;103388;-75
2022/11/15 09:22:44;;;;;;;37.33;19.73;;;;;;;9.44;82.30;101035.77;125989;1102;103405;-76
2022/11/15 09:25:40;;;;;;;41.77;21.27;;;;;;;9.54;82.45;101037.11;126145;1101;104702;-74
2022/11/15 09:28:32;;;;;;;33.47;18.90;;;;;;;9.59;82.61;101025.11;126084;1101;102227;-75
2022/11/15 09:31:19;;;;;;;33.50;18.60;;;;;;;9.60;81.96;101019.06;126077;1100;102136;-75
2022/11/15 09:34:07;;;;;;;36.50;17.90;;;;;;;9.63;81.64;101011.34;124202;1102;104362;-75
2022/11/15 09:37:01;;;;;;;36.90;18.45;;;;;;;9.65;82.00;101012.31;124447;1102;102922;-75
2022/11/15 09:39:48;;;;;;;37.17;17.37;;;;;;;9.74;82.17;101008.32;124167;1102;104381;-75
2022/11/15 09:42:53;;;;;;;32.87;16.57;;;;;;;9.82;81.81;101005.24;124120;1102;104258;-74
2022/11/15 09:45:56;;;;;;;29.77;16.50;;;;;;;9.92;82.12;100997.81;124328;1102;102825;-76
2022/11/15 09:48:56;;;;;;;31.57;16.17;;;;;;;10.01;81.60;100998.23;124371;1102;104245;-74
2022/11/15 09:51:36;;;;;;;32.27;16.47;;;;;;;10.01;81.42;100986.02;124454;1102;103652;-74
2022/11/15 09:54:40;;;;;;;32.30;16.40;;;;;;;10.07;81.52;100986.30;124371;1102;104249;-74
2022/11/15 09:57:14;;;;;;;30.47;15.67;;;;;;;10.11;81.39;100983.81;125189;1102;102616;-74
2022/11/15 10:00:06;;;;;;;31.30;17.07;;;;;;;10.14;81.17;100978.70;124238;1102;104274;-73
2022/11/15 10:03:05;;;;;;;33.90;16.30;;;;;;;10.20;81.04;100978.98;124400;1102;104168;-73
2022/11/15 10:06:12;;;;;;;;;;;;;;;;;;;;;
2022/11/15 10:08:55;;;;;;;30.90;15.90;;;;;;;10.34;80.85;100953.41;124259;1102;105452;-75
2022/11/15 10:11:46;;;;;;;31.80;16.50;;;;;;;10.37;81.07;100951.80;124266;1102;104169;-73
2022/11/15 10:14:32;;;;;;;32.67;15.77;;;;;;;10.42;81.14;100944.12;124199;1102;104354;-76
2022/11/15 10:17:58;;;;;;;21.47;10.17;;;;;;;10.48;80.13;100936.52;124849;1102;103013;-74
2022/11/15 10:20:50;;;;;;;14.90;6.40;;;;;;;10.53;77.78;100931.47;123957;1105;104251;-76
2022/11/15 10:23:22;;;;;;;17.70;8.37;;;;;;;10.59;79.11;100926.48;124209;1102;103228;-75
2022/11/15 10:26:00;;;;;;;13.98;6.95;;;;;;;10.69;78.48;100912.94;124239;1102;102736;-74
2022/11/15 10:28:37;;;;;;;15.83;7.03;;;;;;;10.82;78.57;100918.70;124241;1102;104261;-75
2022/11/15 10:31:24;;;;;;;14.70;6.13;;;;;;;10.93;78.72;100906.89;125265;1101;104326;-74
2022/11/15 10:34:15;;;;;;;11.83;6.07;;;;;;;11.04;77.94;100907.33;124360;1102;104198;-75
2022/11/15 10:36:56;;;;;;;13.08;6.17;;;;;;;11.10;77.60;100895.33;124177;1102;103267;-76
2022/11/15 10:39:31;;;;;;;12.23;6.27;;;;;;;11.18;77.67;100892.13;124206;1100;104339;-77
2022/11/15 10:42:36;;;;;;;13.83;5.90;;;;;;;11.23;77.76;100886.20;125455;1102;103199;-77
2022/11/15 10:45:28;;;;;;;15.37;6.43;;;;;;;11.35;77.77;100883.16;125410;1102;104181;-75
2022/11/15 10:48:24;;;;;;;13.17;6.13;;;;;;;11.45;77.03;100873.89;125493;1102;102718;-75
2022/11/15 10:51:25;;;;;;;11.00;6.10;;;;;;;11.45;75.97;100868.64;125507;1102;104041;-76
2022/11/15 10:54:13;;;;;;;10.37;5.47;;;;;;;11.45;75.95;100874.81;125460;1102;104127;-76
2022/11/15 10:56:43;;;;;;;11.30;5.67;;;;;;;11.51;76.08;100860.98;125476;1101;104307;-76
2022/11/15 10:59:26;;;;;;;13.10;5.73;;;;;;;11.54;75.14;100871.61;124474;1102;103013;-73
2022/11/15 11:02:00;;;;;;;14.00;6.20;;;;;;;11.53;74.95;100858.41;125510;1102;103413;-73
2022/11/15 11:04:51;;;;;;;13.43;6.00;;;;;;;11.54;75.18;100854.97;125224;1102;103036;-75
2022/11/15 11:07:40;;;;;;;14.57;5.60;;;;;;;11.53;74.67;100848.83;125319;1102;102807;-76
2022/11/15 11:10:21;;;;;;;11.80;5.83;;;;;;;11.54;74.50;100844.45;125440;1102;104274;-75
2022/11/15 11:12:57;;;;;;;12.60;5.80;;;;;;;11.50;73.54;100846.08;125440;1102;104115;-74
2022/11/15 11:15:37;;;;;;;11.73;5.70;;;;;;;11.47;73.74;100838.08;125535;1102;103327;-74
2022/11/15 11:18:15;;;;;;;11.57;6.17;;;;;;;11.49;74.18;100833.77;125227;1102;103122;-75
2022/11/15 11:20:51;;;;;;;11.37;5.67;;;;;;;11.49;73.44;100828.51;125461;1102;102498;-74
2022/11/15 11:23:46;;;;;;;12.93;5.90;;;;;;;11.47;73.40;100824.94;125588;1102;102828;-74
2022/11/15 11:26:49;;;;;;;14.43;5.67;;;;;;;11.53;73.85;100817.28;125611;1102;102678;-76
2022/11/15 11:29:42;;;;;;;11.17;5.93;;;;;;;11.51;73.00;100811.97;125445;1102;103404;-76
2022/11/15 11:32:33;;;;;;;12.83;6.30;;;;;;;11.53;73.28;100803.23;125418;1102;103240;-75
2022/11/15 11:35:14;;;;;;;12.53;5.63;;;;;;;11.57;72.09;100799.89;125354;1102;104339;-74
2022/11/15 11:37:59;;;;;;;12.27;5.80;;;;;;;11.53;71.52;100804.14;125351;1102;103490;-74
2022/11/15 11:40:36;;;;;;;10.63;5.33;;;;;;;11.50;71.70;100793.52;124319;1102;103385;-75
2022/11/15 11:43:18;;;;;;;10.40;5.37;;;;;;;11.51;71.62;100790.03;125389;1102;102936;-74
2022/11/15 11:46:26;;;;;;;8.03;5.03;;;;;;;11.58;71.81;100788.55;124509;1102;104731;-75
2022/11/15 11:49:10;;;;;;;10.13;5.40;;;;;;;11.63;72.04;100781.71;126095;1102;102449;-75
2022/11/15 11:51:55;;;;;;;15.80;7.07;;;;;;;11.67;71.84;100786.22;125860;1102;103450;-75
2022/11/15 11:54:54;;;;;;;14.90;6.37;;;;;;;11.73;71.80;100783.80;124927;1101;102886;-74
2022/11/15 11:57:34;;;;;;;13.83;6.10;;;;;;;11.73;71.20;100775.03;124351;1102;104245;-75
2022/11/15 12:00:16;;;;;;;12.90;6.50;;;;;;;11.72;71.56;100778.49;124356;1102;104163;-75
2022/11/15 12:02:57;;;;;;;11.70;6.03;;;;;;;11.71;71.48;100768.84;124373;1102;102848;-75
2022/11/15 12:05:33;;;;;;;12.37;5.80;;;;;;;11.68;70.99;100772.24;124183;1101;104172;-74
2022/11/15 12:08:36;;;;;;;14.07;6.47;;;;;;;11.68;71.22;100774.88;124325;1102;104245;-75
2022/11/15 12:11:32;;;;;;;;;;;;;;;;;;;;;
2022/11/15 12:14:22;;;;;;;13.43;6.40;;;;;;;11.72;71.07;100758.38;126059;1100;102188;-72
2022/11/15 12:16:51;;;;;;;11.20;5.93;;;;;;;11.70;70.97;100754.78;126092;1100;102640;-74
2022/11/15 12:19:22;;;;;;;13.80;5.87;;;;;;;11.65;70.44;100746.73;126137;1101;101862;-75
2022/11/15 12:21:57;;;;;;;12.10;6.33;;;;;;;11.63;70.44;100747.54;126060;1101;103432;-75
2022/11/15 12:24:28;;;;;;;14.60;6.50;;;;;;;11.63;70.43;100739.66;125449;1101;104242;-75
2022/11/15 12:27:05;;;;;;;16.93;6.50;;;;;;;11.63;70.75;100735.28;124075;1102;104353;-76
2022/11/15 12:29:40;;;;;;;13.10;6.40;;;;;;;11.66;70.53;100742.39;124109;1102;104162;-75
2022/11/15 12:32:23;;;;;;;14.20;6.90;;;;;;;11.64;70.08;100739.70;124328;1102;103157;-75
2022/11/15 12:34:59;;;;;;;14.40;6.50;;;;;;;11.62;70.18;100743.11;124238;1102;104251;-77
2022/11/15 12:37:49;;;;;;;14.67;6.80;;;;;;;11.63;70.44;100732.66;126499;1100;103077;-76
2022/11/15 12:40:24;;;;;;;12.17;6.30;;;;;;;11.65;70.51;100735.34;125897;1101;104076;-76
2022/11/15 12:43:25;;;;;;;13.90;6.20;;;;;;;11.65;70.35;100727.45;125983;1101;102478;-76
2022/11/15 12:45:54;;;;;;;14.30;6.60;;;;;;;11.63;69.97;100722.14;126191;1100;101908;-72
2022/11/15 12:48:58;;;;;;;14.10;6.23;;;;;;;11.58;69.40;100725.47;124354;1102;104255;-73
2022/11/15 12:51:46;;;;;;;;;;;;;;;11.56;69.48;100719.23;124234;1102;103058;-74
2022/11/15 12:55:10;;;;;;;78.27;26.43;;;;;;;11.58;69.97;100715.84;124513;1102;104176;-74
2022/11/15 12:57:42;;;;;;;18.13;8.60;;;;;;;11.56;69.70;100708.73;124189;1102;104418;-74
2022/11/15 13:00:43;;;;;;;14.57;7.00;;;;;;;11.53;69.61;100711.25;124444;1102;104281;-74
2022/11/15 13:03:32;;;;;;;24.63;9.47;;;;;;;11.49;69.01;100705.00;124243;1102;102265;-73